createdAt,value
2022-08-28T00:02:07.491Z,96501.94
2022-08-28T00:04:35.087Z,96500.34
2022-08-28T00:07:01.731Z,96502.69
2022-08-28T00:09:27.605Z,96501.72
2022-08-28T00:11:53.832Z,96505.69
2022-08-28T00:14:21.203Z,96500.38
2022-08-28T00:16:48.297Z,96498.72
2022-08-28T00:19:15.894Z,96503.03
2022-08-28T00:21:41.877Z,96502.50
2022-08-28T00:24:08.293Z,96496.91
2022-08-28T00:26:52.931Z,96500.94
2022-08-28T00:29:18.743Z,96495.31
2022-08-28T00:31:44.730Z,96499.06
2022-08-28T00:34:10.695Z,96500.38
2022-08-28T00:36:37.989Z,96498.50
2022-08-28T00:39:05.263Z,96501.97
2022-08-28T00:41:34.502Z,96502.53
2022-08-28T00:44:28.663Z,96498.00
2022-08-28T00:46:57.246Z,96499.63
2022-08-28T00:49:27.705Z,96493.19
2022-08-28T00:52:08.228Z,96496.91
2022-08-28T00:54:41.706Z,96503.03
2022-08-28T00:57:33.649Z,96496.13
2022-08-28T00:59:59.722Z,96503.03
2022-08-28T01:02:26.702Z,96498.78
2022-08-28T01:04:53.988Z,96497.47
2022-08-28T01:07:22.412Z,96497.75
2022-08-28T01:09:52.767Z,96505.19
2022-08-28T01:12:25.693Z,96506.56
2022-08-28T01:14:57.760Z,96503.09
2022-08-28T01:17:27.755Z,96511.09
2022-08-28T01:20:00.191Z,96507.09
2022-08-28T01:22:48.384Z,96505.50
2022-08-28T01:25:18.455Z,96506.28
2022-08-28T01:27:44.594Z,96517.47
2022-08-28T01:30:14.144Z,96512.69
2022-08-28T01:32:50.949Z,96511.38
2022-08-28T01:35:22.057Z,96518.28
2022-08-28T01:37:48.123Z,96519.31
2022-08-28T01:40:19.539Z,96519.31
2022-08-28T01:42:45.635Z,96516.69
2022-08-28T01:45:17.693Z,96521.44
2022-08-28T01:47:44.763Z,96517.72
2022-08-28T01:50:14.165Z,96530.25
2022-08-28T01:52:40.955Z,96528.13
2022-08-28T01:55:08.010Z,96525.72
2022-08-28T01:57:34.628Z,96524.94
2022-08-28T02:00:00.861Z,96524.66
2022-08-28T02:02:28.517Z,96526.78
2022-08-28T02:04:54.309Z,96527.06
2022-08-28T02:07:20.149Z,96527.59
2022-08-28T02:09:46.253Z,96531.06
2022-08-28T02:12:12.041Z,96521.47
2022-08-28T02:14:38.126Z,96514.84
2022-08-28T02:17:04.067Z,96515.88
2022-08-28T02:19:31.257Z,96525.75
2022-08-28T02:21:57.087Z,96524.41
2022-08-28T02:24:23.031Z,96524.94
2022-08-28T02:26:48.873Z,96520.66
2022-08-28T02:29:14.709Z,96532.66
2022-08-28T02:31:40.501Z,96531.06
2022-08-28T02:34:06.405Z,96533.72
2022-08-28T02:36:33.052Z,96528.91
2022-08-28T02:38:58.977Z,96530.25
2022-08-28T02:41:25.523Z,96540.88
2022-08-28T02:43:51.599Z,96539.03
2022-08-28T02:46:17.527Z,96538.75
2022-08-28T02:48:44.021Z,96539.06
2022-08-28T02:51:12.568Z,96536.38
2022-08-28T02:53:39.938Z,96535.28
2022-08-28T02:56:06.886Z,96530.78
2022-08-28T02:58:33.866Z,96528.94
2022-08-28T03:01:01.172Z,96532.66
2022-08-28T03:03:30.393Z,96533.69
2022-08-28T03:05:57.788Z,96527.78
2022-08-28T03:08:27.292Z,96531.03
2022-08-28T03:10:53.450Z,96534.25
2022-08-28T03:13:23.123Z,96530.78
2022-08-28T03:15:55.947Z,96529.97
2022-08-28T03:18:23.687Z,96523.59
2022-08-28T03:20:49.524Z,96524.91
2022-08-28T03:23:27.533Z,96514.28
2022-08-28T03:26:00.140Z,96513.13
2022-08-28T03:28:29.983Z,96512.41
2022-08-28T03:30:57.012Z,96511.00
2022-08-28T03:33:25.537Z,96513.38
2022-08-28T03:35:52.075Z,96504.31
2022-08-28T03:38:18.927Z,96517.09
2022-08-28T03:40:46.476Z,96518.44
2022-08-28T03:43:15.012Z,96529.06
2022-08-28T03:45:41.580Z,96520.50
2022-08-28T03:48:07.861Z,96523.13
2022-08-28T03:50:34.364Z,96524.69
2022-08-28T03:53:00.189Z,96521.00
2022-08-28T03:55:26.164Z,96527.69
2022-08-28T03:57:52.164Z,96527.97
2022-08-28T04:00:19.648Z,96521.69
2022-08-28T04:02:45.598Z,96527.63
2022-08-28T04:05:12.212Z,96523.66
2022-08-28T04:07:38.784Z,96519.69
2022-08-28T04:10:05.228Z,96529.97
2022-08-28T04:12:32.847Z,96519.78
2022-08-28T04:15:01.385Z,96523.81
2022-08-28T04:17:27.272Z,96527.25
2022-08-28T04:19:53.542Z,96530.63
2022-08-28T04:22:20.233Z,96529.72
2022-08-28T04:24:49.700Z,96534.94
2022-08-28T04:27:15.468Z,96532.75
2022-08-28T04:29:41.311Z,96535.41
2022-08-28T04:32:07.248Z,96536.19
2022-08-28T04:34:33.085Z,96532.75
2022-08-28T04:36:58.922Z,96531.44
2022-08-28T04:39:24.697Z,96530.00
2022-08-28T04:41:50.544Z,96531.38
2022-08-28T04:44:16.478Z,96533.53
2022-08-28T04:46:42.704Z,96539.41
2022-08-28T04:49:08.574Z,96534.19
2022-08-28T04:51:36.840Z,96534.13
2022-08-28T04:54:04.835Z,96546.97
2022-08-28T04:56:30.909Z,96556.50
2022-08-28T04:58:56.835Z,96549.63
2022-08-28T05:01:24.401Z,96550.00
2022-08-28T05:03:56.743Z,96554.06
2022-08-28T05:06:26.061Z,96555.31
2022-08-28T05:08:53.293Z,96556.50
2022-08-28T05:11:33.417Z,96556.44
2022-08-28T05:14:05.014Z,96557.41
2022-08-28T05:16:32.138Z,96562.72
2022-08-28T05:19:02.568Z,96564.25
2022-08-28T05:21:28.397Z,96563.94
2022-08-28T05:23:56.648Z,96569.41
2022-08-28T05:26:22.849Z,96575.25
2022-08-28T05:28:54.369Z,96579.59
2022-08-28T05:31:21.863Z,96581.78
2022-08-28T05:33:49.127Z,96585.44
2022-08-28T05:36:16.921Z,96585.19
2022-08-28T05:38:43.608Z,96581.09
2022-08-28T05:41:09.409Z,96585.88
2022-08-28T05:43:35.987Z,96589.56
2022-08-28T05:46:06.797Z,96590.50
2022-08-28T05:48:37.099Z,96595.25
2022-08-28T05:51:07.756Z,96599.22
2022-08-28T05:53:36.827Z,96597.13
2022-08-28T05:56:04.389Z,96603.81
2022-08-28T05:58:31.208Z,96609.59
2022-08-28T06:01:08.998Z,96611.91
2022-08-28T06:03:36.873Z,96609.00
2022-08-28T06:06:03.596Z,96614.00
2022-08-28T06:08:30.948Z,96614.00
2022-08-28T06:10:57.757Z,96616.09
2022-08-28T06:13:24.676Z,96616.66
2022-08-28T06:15:50.662Z,96615.34
2022-08-28T06:18:16.945Z,96619.25
2022-08-28T06:20:44.932Z,96611.28
2022-08-28T06:23:14.637Z,96620.88
2022-08-28T06:25:48.387Z,96622.25
2022-08-28T06:28:18.191Z,96626.06
2022-08-28T06:31:08.946Z,96631.72
2022-08-28T06:33:30.969Z,96629.72
2022-08-28T06:35:56.852Z,96635.81
2022-08-28T06:38:24.994Z,96635.09
2022-08-28T06:40:53.353Z,96631.47
2022-08-28T06:43:22.417Z,96634.97
2022-08-28T06:45:51.180Z,96633.53
2022-08-28T06:48:18.957Z,96627.28
2022-08-28T06:50:48.893Z,96642.22
2022-08-28T06:53:17.918Z,96636.03
2022-08-28T06:55:43.965Z,96634.69
2022-08-28T06:58:11.958Z,96626.63
2022-08-28T07:00:39.648Z,96633.31
2022-08-28T07:03:05.717Z,96630.75
2022-08-28T07:05:33.286Z,96635.88
2022-08-28T07:07:59.393Z,96637.88
2022-08-28T07:10:28.678Z,96640.94
2022-08-28T07:12:54.632Z,96643.81
2022-08-28T07:15:20.773Z,96642.78
2022-08-28T07:17:46.707Z,96643.59
2022-08-28T07:20:12.842Z,96648.28
2022-08-28T07:22:40.276Z,96653.31
2022-08-28T07:25:08.397Z,96647.94
2022-08-28T07:27:34.260Z,96649.63
2022-08-28T07:30:01.289Z,96648.72
2022-08-28T07:32:28.201Z,96645.19
2022-08-28T07:34:56.372Z,96657.53
2022-08-28T07:37:22.173Z,96650.91
2022-08-28T07:39:48.906Z,96656.78
2022-08-28T07:42:35.778Z,96651.47
2022-08-28T07:45:02.128Z,96659.22
2022-08-28T07:47:31.261Z,96655.25
2022-08-28T07:49:59.935Z,96667.97
2022-08-28T07:52:27.260Z,96669.94
2022-08-28T07:54:54.132Z,96671.16
2022-08-28T07:57:20.560Z,96666.41
2022-08-28T07:59:48.851Z,96672.47
2022-08-28T08:02:15.714Z,96673.31
2022-08-28T08:04:42.238Z,96670.09
2022-08-28T08:07:08.966Z,96678.72
2022-08-28T08:09:42.975Z,96684.72
2022-08-28T08:12:11.490Z,96682.00
2022-08-28T08:14:38.713Z,96684.72
2022-08-28T08:17:05.215Z,96686.41
2022-08-28T08:19:33.909Z,96693.88
2022-08-28T08:22:00.528Z,96691.03
2022-08-28T08:24:27.766Z,96699.59
2022-08-28T08:26:59.927Z,96702.00
2022-08-28T08:29:32.462Z,96699.06
2022-08-28T08:32:04.578Z,96697.72
2022-08-28T08:34:32.295Z,96701.44
2022-08-28T08:36:58.140Z,96703.31
2022-08-28T08:39:24.045Z,96703.53
2022-08-28T08:41:54.744Z,96697.94
2022-08-28T08:44:35.966Z,96704.69
2022-08-28T08:47:14.545Z,96698.53
2022-08-28T08:49:55.087Z,96704.34
2022-08-28T08:52:44.194Z,96702.28
2022-08-28T08:55:22.603Z,96709.78
2022-08-28T08:58:13.221Z,96709.75
2022-08-28T09:00:51.540Z,96717.47
2022-08-28T09:03:25.581Z,96714.31
2022-08-28T09:05:57.441Z,96715.66
2022-08-28T09:08:34.408Z,96703.97
2022-08-28T09:11:06.328Z,96711.97
2022-08-28T09:14:04.354Z,96719.72
2022-08-28T09:16:34.860Z,96725.84
2022-08-28T09:19:01.001Z,96721.84
2022-08-28T09:21:31.167Z,96723.19
2022-08-28T09:24:05.533Z,96720.50
2022-08-28T09:26:32.198Z,96723.72
2022-08-28T09:29:06.292Z,96724.25
2022-08-28T09:31:41.148Z,96727.44
2022-08-28T09:34:23.477Z,96733.56
2022-08-28T09:36:50.613Z,96740.22
2022-08-28T09:39:26.732Z,96737.28
2022-08-28T09:42:32.832Z,96730.63
2022-08-28T09:45:20.412Z,96740.22
2022-08-28T09:47:53.227Z,96733.78
2022-08-28T09:50:31.339Z,96737.28
2022-08-28T09:53:19.792Z,96736.44
2022-08-28T09:56:04.036Z,96731.84
2022-08-28T09:58:49.040Z,96733.22
2022-08-28T10:01:22.557Z,96732.38
2022-08-28T10:03:55.357Z,96732.59
2022-08-28T10:06:27.538Z,96730.09
2022-08-28T10:09:25.725Z,96724.91
2022-08-28T10:12:19.396Z,96729.03
2022-08-28T10:15:02.435Z,96730.97
2022-08-28T10:17:28.584Z,96720.31
2022-08-28T10:20:14.846Z,96722.00
2022-08-28T10:23:29.801Z,96722.78
2022-08-28T10:26:40.527Z,96717.66
2022-08-28T10:29:24.484Z,96731.16
2022-08-28T10:32:02.401Z,96726.78
2022-08-28T10:35:08.097Z,96732.13
2022-08-28T10:37:52.184Z,96723.13
2022-08-28T10:40:25.692Z,96730.41
2022-08-28T10:43:14.223Z,96731.63
2022-08-28T10:45:40.996Z,96730.06
2022-08-28T10:48:16.834Z,96735.88
2022-08-28T10:50:54.181Z,96731.44
2022-08-28T10:53:27.235Z,96728.44
2022-08-28T10:56:02.789Z,96733.66
2022-08-28T10:58:31.358Z,96722.78
2022-08-28T11:01:06.024Z,96731.28
2022-08-28T11:03:45.856Z,96730.91
2022-08-28T11:06:33.286Z,96728.44
2022-08-28T11:09:22.604Z,96727.91
2022-08-28T11:11:50.347Z,96730.88
2022-08-28T11:14:48.407Z,96739.06
2022-08-28T11:17:24.592Z,96738.34
2022-08-28T11:19:56.152Z,96734.88
2022-08-28T11:22:41.031Z,96735.31
2022-08-28T11:25:26.591Z,96748.75
2022-08-28T11:28:21.765Z,96743.75
2022-08-28T11:31:08.601Z,96748.66
2022-08-28T11:33:54.799Z,96753.16
2022-08-28T11:36:20.836Z,96746.81
2022-08-28T11:38:56.822Z,96747.47
2022-08-28T11:41:28.590Z,96737.66
2022-08-28T11:44:03.680Z,96746.41
2022-08-28T11:46:34.560Z,96747.19
2022-08-28T11:49:26.965Z,96749.91
2022-08-28T11:52:20.003Z,96744.38
2022-08-28T11:54:59.424Z,96740.25
2022-08-28T11:57:46.231Z,96742.78
2022-08-28T12:00:45.628Z,96746.44
2022-08-28T12:03:53.502Z,96742.84
2022-08-28T12:06:46.850Z,96741.25
2022-08-28T12:09:38.925Z,96740.13
2022-08-28T12:12:37.009Z,96742.09
2022-08-28T12:15:08.074Z,96738.59
2022-08-28T12:17:44.231Z,96727.75
2022-08-28T12:20:20.557Z,96734.47
2022-08-28T12:22:53.652Z,96727.72
2022-08-28T12:25:41.474Z,96731.75
2022-08-28T12:28:21.863Z,96735.22
2022-08-28T12:30:58.757Z,96740.69
2022-08-28T12:33:31.297Z,96736.06
2022-08-28T12:36:05.515Z,96733.50
2022-08-28T12:38:33.931Z,96730.59
2022-08-28T12:41:02.039Z,96739.34
2022-08-28T12:43:30.682Z,96737.16
2022-08-28T12:45:58.840Z,96725.53
2022-08-28T12:48:31.862Z,96738.44
2022-08-28T12:51:00.879Z,96734.66
2022-08-28T12:53:42.034Z,96740.56
2022-08-28T12:56:14.933Z,96736.22
2022-08-28T12:58:42.316Z,96734.25
2022-08-28T13:01:14.364Z,96732.34
2022-08-28T13:03:59.650Z,96725.63
2022-08-28T13:06:27.016Z,96725.91
2022-08-28T13:09:00.820Z,96724.00
2022-08-28T13:11:39.045Z,96719.53
2022-08-28T13:14:07.865Z,96726.19
2022-08-28T13:16:42.943Z,96721.13
2022-08-28T13:19:12.222Z,96718.38
2022-08-28T13:21:47.002Z,96710.88
2022-08-28T13:24:22.245Z,96713.41
2022-08-28T13:26:58.511Z,96713.84
2022-08-28T13:29:24.545Z,96709.38
2022-08-28T13:32:00.155Z,96704.75
2022-08-28T13:34:31.454Z,96712.25
2022-08-28T13:36:59.171Z,96710.16
2022-08-28T13:39:27.562Z,96712.56
2022-08-28T13:41:57.635Z,96711.44
2022-08-28T13:44:36.040Z,96711.88
2022-08-28T13:47:06.165Z,96709.50
2022-08-28T13:49:33.379Z,96702.06
2022-08-28T13:52:01.685Z,96696.47
2022-08-28T13:54:29.463Z,96699.88
2022-08-28T13:56:57.570Z,96694.19
2022-08-28T13:59:24.058Z,96702.88
2022-08-28T14:02:12.690Z,96705.72
2022-08-28T14:04:39.423Z,96693.94
2022-08-28T14:07:07.233Z,96674.88
2022-08-28T14:09:34.631Z,96686.59
2022-08-28T14:12:01.838Z,96687.22
2022-08-28T14:14:28.180Z,96689.81
2022-08-28T14:16:55.243Z,96690.28
2022-08-28T14:19:21.659Z,96683.22
2022-08-28T14:21:47.811Z,96683.84
2022-08-28T14:24:13.961Z,96682.59
2022-08-28T14:26:39.952Z,96675.63
2022-08-28T14:29:08.961Z,96684.34
2022-08-28T14:31:36.107Z,96681.69
2022-08-28T14:34:04.133Z,96681.22
2022-08-28T14:36:31.231Z,96676.94
2022-08-28T14:39:04.020Z,96680.91
2022-08-28T14:41:32.024Z,96679.91
2022-08-28T14:43:58.221Z,96673.63
2022-08-28T14:46:27.838Z,96688.56
2022-08-28T14:48:59.536Z,96680.94
2022-08-28T14:51:26.241Z,96675.28
2022-08-28T14:53:52.581Z,96680.06
2022-08-28T14:56:20.520Z,96682.44
2022-08-28T14:58:46.513Z,96686.25
2022-08-28T15:01:22.707Z,96685.63
2022-08-28T15:03:48.948Z,96691.47
2022-08-28T15:06:15.487Z,96683.19
2022-08-28T15:08:41.494Z,96679.56
2022-08-28T15:11:10.301Z,96683.53
2022-08-28T15:13:37.198Z,96681.97
2022-08-28T15:16:14.638Z,96682.56
2022-08-28T15:18:43.666Z,96691.19
2022-08-28T15:21:20.791Z,96680.22
2022-08-28T15:23:51.435Z,96683.03
2022-08-28T15:26:18.766Z,96677.75
2022-08-28T15:28:45.283Z,96681.69
2022-08-28T15:31:11.611Z,96683.16
2022-08-28T15:33:40.127Z,96680.66
2022-08-28T15:36:08.937Z,96679.22
2022-08-28T15:38:53.325Z,96680.81
2022-08-28T15:41:24.491Z,96685.41
2022-08-28T15:43:53.019Z,96687.81
2022-08-28T15:46:19.340Z,96683.25
2022-08-28T15:48:47.527Z,96680.53
2022-08-28T15:51:14.830Z,96678.59
2022-08-28T15:53:41.444Z,96680.81
2022-08-28T15:56:08.364Z,96684.63
2022-08-28T15:58:35.370Z,96677.84
2022-08-28T16:01:03.240Z,96682.13
2022-08-28T16:03:29.136Z,96671.31
2022-08-28T16:05:55.302Z,96672.75
2022-08-28T16:08:21.453Z,96679.59
2022-08-28T16:10:49.126Z,96671.00
2022-08-28T16:13:16.630Z,96677.19
2022-08-28T16:15:43.787Z,96677.84
2022-08-28T16:18:12.158Z,96673.19
2022-08-28T16:20:42.615Z,96668.59
2022-08-28T16:23:10.120Z,96672.25
2022-08-28T16:25:36.136Z,96672.09
2022-08-28T16:28:03.172Z,96670.03
2022-08-28T16:30:29.149Z,96662.25
2022-08-28T16:32:55.083Z,96664.16
2022-08-28T16:35:21.629Z,96671.47
2022-08-28T16:37:47.711Z,96672.38
2022-08-28T16:40:14.860Z,96669.75
2022-08-28T16:42:41.306Z,96669.34
2022-08-28T16:45:09.121Z,96668.75
2022-08-28T16:47:37.230Z,96664.41
2022-08-28T16:50:12.263Z,96665.91
2022-08-28T16:52:38.303Z,96665.28
2022-08-28T16:55:06.767Z,96667.19
2022-08-28T16:57:33.426Z,96668.25
2022-08-28T16:59:59.731Z,96665.75
2022-08-28T17:02:26.876Z,96667.38
2022-08-28T17:04:55.252Z,96664.84
2022-08-28T17:07:21.484Z,96669.66
2022-08-28T17:09:47.526Z,96669.56
2022-08-28T17:12:13.741Z,96668.25
2022-08-28T17:14:41.233Z,96676.06
2022-08-28T17:17:07.156Z,96671.75
2022-08-28T17:19:33.132Z,96665.94
2022-08-28T17:22:17.748Z,96669.91
2022-08-28T17:24:47.067Z,96660.56
2022-08-28T17:27:16.740Z,96671.50
2022-08-28T17:29:48.594Z,96665.22
2022-08-28T17:32:14.519Z,96671.38
2022-08-28T17:34:40.589Z,96668.38
2022-08-28T17:37:06.565Z,96670.97
2022-08-28T17:39:32.481Z,96666.91
2022-08-28T17:41:59.227Z,96670.66
2022-08-28T17:44:25.338Z,96673.44
2022-08-28T17:46:51.236Z,96680.97
2022-08-28T17:49:17.709Z,96682.38
2022-08-28T17:51:44.572Z,96683.44
2022-08-28T17:54:20.663Z,96683.47
2022-08-28T17:56:47.176Z,96687.81
2022-08-28T17:59:13.893Z,96679.78
2022-08-28T18:01:41.237Z,96684.22
2022-08-28T18:04:08.119Z,96679.53
2022-08-28T18:06:34.397Z,96680.91
2022-08-28T18:09:00.760Z,96678.28
2022-08-28T18:11:27.332Z,96689.63
2022-08-28T18:13:53.484Z,96683.63
2022-08-28T18:16:19.508Z,96687.66
2022-08-28T18:18:45.394Z,96679.66
2022-08-28T18:21:12.571Z,96684.97
2022-08-28T18:23:39.704Z,96691.84
2022-08-28T18:26:07.359Z,96691.84
2022-08-28T18:28:33.354Z,96694.16
2022-08-28T18:31:00.510Z,96696.28
2022-08-28T18:33:26.989Z,96698.41
2022-08-28T18:35:53.513Z,96706.03
2022-08-28T18:38:22.180Z,96704.41
2022-08-28T18:40:48.589Z,96705.31
2022-08-28T18:43:16.526Z,96704.97
2022-08-28T18:45:42.419Z,96703.94
2022-08-28T18:48:08.383Z,96706.97
2022-08-28T18:50:34.854Z,96706.41
2022-08-28T18:53:01.513Z,96715.59
2022-08-28T18:55:30.350Z,96709.16
2022-08-28T18:57:59.567Z,96722.13
2022-08-28T19:00:26.802Z,96726.09
2022-08-28T19:02:53.655Z,96729.66
2022-08-28T19:05:20.610Z,96732.31
2022-08-28T19:07:47.228Z,96736.66
2022-08-28T19:10:32.007Z,96732.13
2022-08-28T19:13:00.240Z,96741.78
2022-08-28T19:15:26.193Z,96739.44
2022-08-28T19:17:52.061Z,96739.50
2022-08-28T19:20:19.713Z,96747.00
2022-08-28T19:22:47.929Z,96748.59
2022-08-28T19:25:22.386Z,96747.75
2022-08-28T19:27:54.700Z,96753.88
2022-08-28T19:30:25.608Z,96750.13
2022-08-28T19:32:51.575Z,96757.06
2022-08-28T19:35:17.716Z,96742.16
2022-08-28T19:37:44.223Z,96749.91
2022-08-28T19:40:12.231Z,96753.94
2022-08-28T19:42:38.341Z,96757.72
2022-08-28T19:45:09.949Z,96750.81
2022-08-28T19:47:35.859Z,96756.94
2022-08-28T19:50:03.841Z,96765.75
2022-08-28T19:52:29.879Z,96762.06
2022-08-28T19:54:55.811Z,96765.75
2022-08-28T19:57:21.699Z,96763.38
2022-08-28T19:59:48.393Z,96769.03
2022-08-28T20:02:14.347Z,96761.75
2022-08-28T20:04:40.320Z,96771.13
2022-08-28T20:07:06.224Z,96768.72
2022-08-28T20:09:32.329Z,96769.50
2022-08-28T20:12:00.044Z,96770.88
2022-08-28T20:14:26.305Z,96775.91
2022-08-28T20:16:53.709Z,96783.41
2022-08-28T20:19:20.310Z,96782.06
2022-08-28T20:21:49.254Z,96781.28
2022-08-28T20:24:22.907Z,96783.19
2022-08-28T20:26:49.705Z,96783.69
2022-08-28T20:29:15.998Z,96786.91
2022-08-28T20:31:44.621Z,96789.59
2022-08-28T20:34:11.574Z,96789.56
2022-08-28T20:36:37.993Z,96789.31
2022-08-28T20:39:06.503Z,96787.44
2022-08-28T20:41:33.564Z,96801.06
2022-08-28T20:44:04.160Z,96800.78
2022-08-28T20:46:31.507Z,96795.69
2022-08-28T20:48:59.031Z,96797.81
2022-08-28T20:51:45.120Z,96798.63
2022-08-28T20:54:11.310Z,96809.28
2022-08-28T20:56:37.391Z,96812.22
2022-08-28T20:59:03.661Z,96822.06
2022-08-28T21:01:29.624Z,96815.13
2022-08-28T21:03:55.536Z,96815.94
2022-08-28T21:06:21.407Z,96807.88
2022-08-28T21:08:49.461Z,96801.72
2022-08-28T21:11:18.598Z,96803.66
2022-08-28T21:13:44.493Z,96811.91
2022-08-28T21:16:10.412Z,96810.78
2022-08-28T21:18:36.366Z,96806.78
2022-08-28T21:21:05.920Z,96807.56
2022-08-28T21:23:32.401Z,96802.50
2022-08-28T21:25:58.905Z,96799.53
2022-08-28T21:28:25.273Z,96809.94
2022-08-28T21:30:53.271Z,96810.00
2022-08-28T21:33:20.048Z,96813.72
2022-08-28T21:35:45.989Z,96808.94
2022-08-28T21:38:11.910Z,96809.44
2022-08-28T21:40:39.952Z,96818.94
2022-08-28T21:43:06.247Z,96817.34
2022-08-28T21:45:32.792Z,96821.94
2022-08-28T21:47:58.863Z,96816.81
2022-08-28T21:50:28.377Z,96820.00
2022-08-28T21:52:55.449Z,96823.34
2022-08-28T21:55:22.110Z,96828.91
2022-08-28T21:57:48.302Z,96828.06
2022-08-28T22:00:19.839Z,96828.19
2022-08-28T22:02:46.745Z,96831.97
2022-08-28T22:05:13.156Z,96835.34
2022-08-28T22:07:39.705Z,96822.75
2022-08-28T22:10:08.068Z,96832.88
2022-08-28T22:12:34.057Z,96832.50
2022-08-28T22:14:59.959Z,96835.13
2022-08-28T22:17:25.912Z,96824.97
2022-08-28T22:19:52.069Z,96837.44
2022-08-28T22:22:36.788Z,96831.81
2022-08-28T22:25:03.875Z,96828.31
2022-08-28T22:27:31.199Z,96829.41
2022-08-28T22:29:57.642Z,96829.84
2022-08-28T22:32:26.012Z,96835.16
2022-08-28T22:34:53.432Z,96841.94
2022-08-28T22:37:19.482Z,96836.19
2022-08-28T22:39:45.318Z,96834.75
2022-08-28T22:42:11.143Z,96842.31
2022-08-28T22:44:37.743Z,96842.22
2022-08-28T22:47:04.519Z,96846.78
2022-08-28T22:49:30.417Z,96841.06
2022-08-28T22:51:56.646Z,96836.94
2022-08-28T22:54:22.548Z,96841.25
2022-08-28T22:56:48.463Z,96842.66
2022-08-28T22:59:14.492Z,96837.13
2022-08-28T23:01:42.046Z,96836.34
2022-08-28T23:04:09.611Z,96835.16
2022-08-28T23:06:38.958Z,96832.38
2022-08-28T23:09:06.630Z,96830.31
2022-08-28T23:11:34.455Z,96823.94
2022-08-28T23:14:00.692Z,96831.09
2022-08-28T23:16:26.698Z,96829.41
2022-08-28T23:19:08.866Z,96825.38
2022-08-28T23:21:36.020Z,96824.31
2022-08-28T23:24:06.845Z,96824.38
2022-08-28T23:26:33.207Z,96817.09
2022-08-28T23:28:59.365Z,96811.91
2022-08-28T23:31:25.474Z,96803.75
2022-08-28T23:33:51.433Z,96803.66
2022-08-28T23:36:18.161Z,96804.63
2022-08-28T23:38:44.397Z,96796.84
2022-08-28T23:41:11.303Z,96797.59
2022-08-28T23:43:37.540Z,96798.63
2022-08-28T23:46:04.289Z,96799.41
2022-08-28T23:48:31.396Z,96797.09
2022-08-28T23:50:58.296Z,96792.09
2022-08-28T23:53:25.026Z,96792.53
2022-08-28T23:55:50.859Z,96795.00
2022-08-28T23:58:17.648Z,96791.00
